Time;durP1;ratioP1;P1;durP2;ratioP2;P2;SDS_P1;SDS_P2;PMS_P1;PMS_P2;Temp;Humidity;BMP_temperature;BMP_pressure;BME280_temperature;BME280_humidity;BME280_pressure;Samples;Min_cycle;Max_cycle;Signal;HPM_P1;HPM_P2
2023/04/06 00:00:08;;;;;;;9.27;6.00;;;;;;;0.44;85.04;100845.91;5005974;28;20302;-69
2023/04/06 00:02:35;;;;;;;10.00;6.03;;;;;;;0.37;85.33;100837.59;5006869;28;20654;-69
2023/04/06 00:05:02;;;;;;;8.27;5.40;;;;;;;0.31;86.00;100836.41;4989492;28;20306;-70
2023/04/06 00:07:29;;;;;;;8.90;5.90;;;;;;;0.28;86.83;100833.63;5002329;28;20202;-69
2023/04/06 00:09:56;;;;;;;12.10;5.37;;;;;;;0.45;86.36;100832.06;5009461;28;20232;-70
2023/04/06 00:12:22;;;;;;;9.27;5.50;;;;;;;0.39;86.49;100820.34;5000292;28;20207;-71
2023/04/06 00:14:49;;;;;;;8.03;5.57;;;;;;;0.37;87.04;100832.38;5011100;28;20203;-72
2023/04/06 00:17:15;;;;;;;8.13;5.03;;;;;;;0.31;86.93;100825.09;5015404;28;20233;-69
2023/04/06 00:19:42;;;;;;;7.50;4.93;;;;;;;0.23;86.39;100831.53;5012499;28;20228;-69
2023/04/06 00:22:08;;;;;;;9.40;5.53;;;;;;;0.14;85.99;100820.56;5004145;28;20236;-69
2023/04/06 00:24:34;;;;;;;7.60;4.93;;;;;;;0.06;86.46;100819.22;5003803;28;20245;-72
2023/04/06 00:27:01;;;;;;;7.00;4.93;;;;;;;-0.12;88.03;100819.84;4998006;28;20209;-69
2023/04/06 00:29:27;;;;;;;11.40;4.93;;;;;;;-0.24;88.72;100826.00;4994643;28;20586;-69
2023/04/06 00:31:54;;;;;;;7.27;4.63;;;;;;;-0.36;89.02;100824.44;5011239;28;20587;-69
2023/04/06 00:34:20;;;;;;;6.60;4.40;;;;;;;-0.49;88.95;100810.50;4991233;28;20201;-71
2023/04/06 00:36:47;;;;;;;7.63;4.73;;;;;;;-0.63;89.94;100812.25;5010152;28;20666;-72
2023/04/06 00:39:13;;;;;;;11.33;4.80;;;;;;;-0.65;90.85;100811.25;5000576;28;20263;-71
2023/04/06 00:41:45;;;;;;;7.00;4.23;;;;;;;-0.68;90.64;100813.66;4995461;28;20235;-71
2023/04/06 00:44:12;;;;;;;7.10;5.17;;;;;;;-0.74;90.20;100801.16;5013388;28;20191;-69
2023/04/06 00:46:38;;;;;;;7.57;4.50;;;;;;;-0.73;89.55;100792.56;5003175;28;20194;-69
2023/04/06 00:49:05;;;;;;;10.87;4.73;;;;;;;-0.72;89.42;100793.44;5009580;28;20207;-70
2023/04/06 00:51:31;;;;;;;12.43;4.67;;;;;;;-0.69;89.64;100789.34;5017307;28;20572;-70
2023/04/06 00:53:58;;;;;;;9.73;5.13;;;;;;;-0.68;88.57;100801.56;5004156;28;20604;-71
2023/04/06 00:56:26;;;;;;;6.40;4.63;;;;;;;-0.72;88.76;100791.75;5027529;28;20282;-69
2023/04/06 00:58:52;;;;;;;9.93;4.73;;;;;;;-0.81;89.07;100793.72;5007592;28;20673;-72
2023/04/06 01:01:19;;;;;;;7.33;4.63;;;;;;;-0.92;90.01;100786.06;5015462;28;20606;-69
2023/04/06 01:03:48;;;;;;;6.87;4.23;;;;;;;-1.05;91.12;100787.84;5019770;28;20196;-72
2023/04/06 01:06:15;;;;;;;8.33;4.93;;;;;;;-1.09;92.56;100787.56;5016459;28;20259;-71
2023/04/06 01:08:41;;;;;;;7.63;4.63;;;;;;;-1.17;93.86;100783.56;5011675;28;20240;-68
2023/04/06 01:11:08;;;;;;;7.43;4.40;;;;;;;-1.26;95.10;100779.53;5011463;28;20782;-69
2023/04/06 01:13:34;;;;;;;6.10;4.43;;;;;;;-1.28;95.38;100788.91;5013463;28;20229;-70
2023/04/06 01:16:02;;;;;;;8.03;4.80;;;;;;;-1.33;95.15;100777.31;5008344;28;20200;-69
2023/04/06 01:18:29;;;;;;;8.40;4.67;;;;;;;-1.12;94.57;100777.88;5023251;28;20260;-71
2023/04/06 01:20:56;;;;;;;6.20;4.40;;;;;;;-1.02;93.66;100774.16;5008948;28;20701;-69
2023/04/06 01:23:22;;;;;;;8.10;4.70;;;;;;;-1.06;93.78;100779.97;5012693;28;20204;-70
2023/04/06 01:25:49;;;;;;;5.83;4.10;;;;;;;-1.05;93.65;100780.06;5011309;28;20657;-70
2023/04/06 01:28:15;;;;;;;9.13;4.40;;;;;;;-0.97;92.49;100781.44;5022781;28;20669;-70
2023/04/06 01:30:41;;;;;;;8.33;4.80;;;;;;;-1.00;92.76;100773.47;5014737;28;20663;-69
2023/04/06 01:33:08;;;;;;;6.50;4.67;;;;;;;-1.10;92.84;100768.47;5013077;28;20196;-69
2023/04/06 01:35:35;;;;;;;7.43;4.70;;;;;;;-1.06;93.41;100769.56;5009913;28;20727;-70
2023/04/06 01:38:02;;;;;;;5.63;4.27;;;;;;;-0.82;89.84;100776.34;5007913;28;20735;-69
2023/04/06 01:40:28;;;;;;;7.37;4.40;;;;;;;-0.91;88.45;100773.16;4998976;28;20743;-69
2023/04/06 01:42:55;;;;;;;6.97;4.57;;;;;;;-0.97;89.08;100763.25;5012947;28;20250;-70
2023/04/06 01:45:21;;;;;;;9.93;4.60;;;;;;;-0.88;88.81;100757.75;4986979;28;20264;-71
2023/04/06 01:47:47;;;;;;;9.07;4.70;;;;;;;-1.05;89.08;100759.28;5011066;28;20224;-69
2023/04/06 01:50:14;;;;;;;10.13;4.97;;;;;;;-0.92;88.87;100768.75;5009689;28;20228;-69
2023/04/06 01:52:40;;;;;;;6.87;4.33;;;;;;;-1.00;89.32;100757.88;5010313;28;20246;-71
2023/04/06 01:55:07;;;;;;;6.53;4.40;;;;;;;-1.12;89.85;100758.78;5010899;28;20290;-70
2023/04/06 01:57:34;;;;;;;6.97;4.30;;;;;;;-1.26;91.18;100763.03;5012004;28;20262;-69
2023/04/06 02:00:01;;;;;;;7.60;4.50;;;;;;;-1.28;91.77;100759.44;5003884;28;20667;-70
2023/04/06 02:02:27;;;;;;;7.27;4.03;;;;;;;-1.39;91.77;100753.53;5016014;28;20191;-69
2023/04/06 02:04:54;;;;;;;6.33;4.43;;;;;;;-1.21;90.94;100759.03;5003601;28;20735;-69
2023/04/06 02:07:20;;;;;;;7.67;4.20;;;;;;;-1.18;91.33;100763.56;5003578;28;20324;-72
2023/04/06 02:09:47;;;;;;;8.83;4.90;;;;;;;-1.10;90.03;100758.06;5008524;28;20275;-73
2023/04/06 02:12:13;;;;;;;6.13;3.83;;;;;;;-1.12;90.27;100753.56;5016595;28;20235;-68
2023/04/06 02:14:40;;;;;;;7.00;4.40;;;;;;;-1.05;90.63;100759.28;5015084;28;20235;-69
2023/04/06 02:17:06;;;;;;;9.43;4.70;;;;;;;-0.99;89.85;100758.75;5009648;28;20200;-70
2023/04/06 02:19:32;;;;;;;9.33;4.30;;;;;;;-1.07;90.06;100763.47;5004308;28;20764;-69
2023/04/06 02:21:59;;;;;;;8.27;4.77;;;;;;;-0.96;89.83;100758.97;5015027;28;20205;-70
2023/04/06 02:24:25;;;;;;;10.30;4.77;;;;;;;-1.01;88.82;100762.97;5018442;28;20200;-69
2023/04/06 02:26:51;;;;;;;7.23;4.37;;;;;;;-1.17;89.10;100758.47;5011856;28;20236;-69
2023/04/06 02:29:18;;;;;;;7.90;4.40;;;;;;;-1.30;89.94;100761.94;5010315;28;20769;-70
2023/04/06 02:31:44;;;;;;;8.20;4.70;;;;;;;-1.47;90.69;100762.53;5013770;28;20199;-69
2023/04/06 02:34:17;;;;;;;7.97;4.03;;;;;;;-1.60;92.18;100765.13;5016778;28;20208;-70
2023/04/06 02:36:45;;;;;;;9.47;4.60;;;;;;;-1.62;92.80;100764.97;5021403;28;20191;-69
2023/04/06 02:39:12;;;;;;;6.33;4.53;;;;;;;-1.69;93.15;100756.69;5009317;28;20223;-70
2023/04/06 02:41:39;;;;;;;9.20;4.80;;;;;;;-1.51;92.66;100754.44;4997190;28;20227;-69
2023/04/06 02:44:09;;;;;;;7.67;4.83;;;;;;;-1.44;92.22;100757.53;5013701;28;20196;-69
2023/04/06 02:46:35;;;;;;;11.70;5.40;;;;;;;-1.36;91.79;100760.63;5007956;28;20641;-69
2023/04/06 02:49:02;;;;;;;7.33;5.10;;;;;;;-1.29;91.85;100750.75;5008720;28;20200;-68
2023/04/06 02:51:28;;;;;;;8.83;4.80;;;;;;;-1.22;91.53;100748.56;5006951;28;20454;-69
2023/04/06 02:53:55;;;;;;;6.17;4.30;;;;;;;-1.29;91.42;100748.16;5010865;28;20209;-71
2023/04/06 02:56:21;;;;;;;7.67;5.00;;;;;;;-1.30;91.95;100745.47;5003908;28;20227;-70
2023/04/06 02:58:48;;;;;;;10.47;4.80;;;;;;;-1.40;92.26;100751.75;5017165;28;20241;-69
2023/04/06 03:01:14;;;;;;;6.07;4.33;;;;;;;-1.37;92.52;100735.47;5015710;28;20570;-69
2023/04/06 03:03:41;;;;;;;7.87;4.50;;;;;;;-1.38;92.37;100751.84;4995853;28;20199;-69
2023/04/06 03:06:08;;;;;;;6.47;4.17;;;;;;;-1.47;92.38;100749.53;5016521;28;20693;-70
2023/04/06 03:08:35;;;;;;;7.57;4.80;;;;;;;-1.60;93.05;100755.63;5020143;28;20195;-69
2023/04/06 03:11:01;;;;;;;9.37;5.03;;;;;;;-1.67;93.00;100749.91;5013787;28;20265;-71
2023/04/06 03:13:27;;;;;;;8.30;4.47;;;;;;;-1.78;93.12;100748.28;4995916;28;20238;-70
2023/04/06 03:15:54;;;;;;;7.77;4.33;;;;;;;-1.87;93.57;100755.44;5006956;28;20224;-71
2023/04/06 03:18:22;;;;;;;7.53;4.47;;;;;;;-1.97;95.06;100762.59;5018157;28;20203;-68
2023/04/06 03:20:49;;;;;;;8.00;4.87;;;;;;;-1.99;95.35;100755.53;5022037;28;20263;-69
2023/04/06 03:23:16;;;;;;;8.13;4.77;;;;;;;-1.76;94.48;100752.78;5011857;28;20204;-69
2023/04/06 03:25:42;;;;;;;6.03;4.30;;;;;;;-1.68;93.12;100759.38;5009061;28;20217;-69
2023/04/06 03:28:09;;;;;;;6.90;4.77;;;;;;;-1.75;93.41;100764.06;5005387;28;20204;-70
2023/04/06 03:30:35;;;;;;;6.37;4.10;;;;;;;-1.85;94.31;100754.75;5016289;28;20310;-69
2023/04/06 03:33:01;;;;;;;8.13;4.77;;;;;;;-1.70;94.18;100762.66;5008090;28;20292;-72
2023/04/06 03:35:28;;;;;;;6.47;4.07;;;;;;;-1.81;93.71;100764.53;5008815;28;20249;-69
2023/04/06 03:37:55;;;;;;;6.93;4.33;;;;;;;-1.81;93.61;100758.47;5003125;28;20204;-69
2023/04/06 03:40:21;;;;;;;8.60;4.33;;;;;;;-1.69;92.72;100762.78;5010953;28;20710;-70
2023/04/06 03:42:47;;;;;;;6.27;4.27;;;;;;;-1.74;92.36;100765.84;5006596;28;20200;-69
2023/04/06 03:45:14;;;;;;;8.03;4.00;;;;;;;-1.90;93.17;100770.00;4990058;28;20255;-69
2023/04/06 03:47:40;;;;;;;5.87;4.23;;;;;;;-2.01;93.82;100772.66;5009259;28;20208;-68
2023/04/06 03:50:07;;;;;;;8.00;4.23;;;;;;;-2.16;94.49;100767.31;5013127;28;20252;-69
2023/04/06 03:52:35;;;;;;;6.73;4.50;;;;;;;-2.25;95.55;100772.75;5012107;28;20422;-69
2023/04/06 03:55:02;;;;;;;7.13;4.43;;;;;;;-2.27;96.98;100769.16;5004133;28;20229;-72
2023/04/06 03:57:28;;;;;;;8.37;4.80;;;;;;;-2.24;97.53;100773.66;5000666;28;20222;-69
2023/04/06 03:59:55;;;;;;;6.80;4.23;;;;;;;-2.33;97.77;100771.31;5008338;28;20270;-68
2023/04/06 04:02:21;;;;;;;9.00;4.70;;;;;;;-2.13;97.44;100777.00;5010105;28;20204;-70
2023/04/06 04:04:48;;;;;;;9.90;4.70;;;;;;;-2.16;97.39;100775.09;5009436;28;20199;-68
2023/04/06 04:07:14;;;;;;;8.80;4.97;;;;;;;-2.16;97.39;100771.59;5011400;28;20219;-69
2023/04/06 04:25:00;;;;;;;7.07;3.90;;;;;;;-2.08;97.22;100792.09;5038092;22;20234;-71
2023/04/06 04:27:27;;;;;;;7.83;4.57;;;;;;;-2.14;97.35;100791.66;5003345;28;20271;-71
2023/04/06 04:29:53;;;;;;;6.70;4.40;;;;;;;-2.06;96.87;100782.72;4984859;28;20228;-71
2023/04/06 04:32:20;;;;;;;8.47;4.83;;;;;;;-2.09;96.59;100789.38;5000343;28;20616;-71
2023/04/06 04:34:47;;;;;;;9.20;4.97;;;;;;;-2.17;95.80;100790.53;5004411;28;20201;-71
2023/04/06 04:37:13;;;;;;;7.60;4.73;;;;;;;-2.21;97.00;100782.56;5002953;28;20196;-71
2023/04/06 04:39:40;;;;;;;9.93;5.40;;;;;;;-2.18;97.11;100786.16;5003942;28;20220;-71
2023/04/06 04:42:07;;;;;;;11.33;5.27;;;;;;;-2.28;97.69;100792.41;5003423;28;20625;-71
2023/04/06 04:44:33;;;;;;;6.70;4.60;;;;;;;-2.35;98.44;100787.56;5001641;28;20201;-71
2023/04/06 04:47:00;;;;;;;9.70;5.23;;;;;;;-2.36;99.08;100783.19;5003952;28;20628;-70
2023/04/06 04:49:26;;;;;;;8.40;5.70;;;;;;;-2.31;99.07;100793.09;4985644;28;20228;-70
2023/04/06 04:51:52;;;;;;;12.10;5.80;;;;;;;-2.22;98.19;100798.00;5003973;28;20576;-70
2023/04/06 04:54:19;;;;;;;9.03;5.03;;;;;;;-2.10;96.66;100792.78;5001713;28;20699;-71
2023/04/06 04:56:46;;;;;;;8.37;4.73;;;;;;;-2.15;96.46;100796.75;5003402;28;20723;-70
2023/04/06 04:59:12;;;;;;;10.17;6.00;;;;;;;-2.20;96.70;100796.41;5003842;28;20210;-71
2023/04/06 05:01:41;;;;;;;9.57;5.77;;;;;;;-2.15;97.43;100796.75;5003434;28;20213;-71
2023/04/06 05:04:20;;;;;;;8.13;5.00;;;;;;;-2.11;96.19;100796.16;5004051;28;20204;-71
2023/04/06 05:06:47;;;;;;;9.40;4.93;;;;;;;-2.16;96.49;100795.84;4997659;28;20279;-70
2023/04/06 05:09:13;;;;;;;8.97;5.83;;;;;;;-2.13;96.76;100790.88;5004910;28;20220;-71
2023/04/06 05:11:40;;;;;;;11.03;5.57;;;;;;;-1.91;96.26;100799.34;5000634;28;20216;-70
2023/04/06 05:14:06;;;;;;;9.47;5.87;;;;;;;-1.71;95.05;100802.41;5002706;28;20211;-71
2023/04/06 05:16:33;;;;;;;10.63;5.47;;;;;;;-1.75;94.91;100793.50;4998812;28;20193;-71
2023/04/06 05:19:00;;;;;;;9.53;5.63;;;;;;;-1.76;95.36;100796.91;5004650;28;20196;-72
2023/04/06 05:21:27;;;;;;;8.73;5.53;;;;;;;-1.74;95.73;100804.81;5007765;28;20307;-71
2023/04/06 05:23:54;;;;;;;10.13;6.30;;;;;;;-1.46;94.31;100797.19;5007859;28;20576;-72
2023/04/06 05:26:20;;;;;;;11.13;6.00;;;;;;;-1.45;93.76;100791.22;4997191;28;20307;-71
2023/04/06 05:28:47;;;;;;;10.27;5.53;;;;;;;-1.45;94.06;100794.69;4999395;28;20232;-71
2023/04/06 05:31:14;;;;;;;11.47;6.13;;;;;;;-1.43;93.84;100800.91;5004340;28;20288;-72
2023/04/06 05:33:41;;;;;;;9.77;5.93;;;;;;;-1.37;93.78;100800.41;5003458;28;20706;-70
2023/04/06 05:36:07;;;;;;;12.13;6.00;;;;;;;-1.31;93.37;100795.63;5005686;28;20242;-71
2023/04/06 05:38:34;;;;;;;11.37;5.93;;;;;;;-0.93;90.77;100792.94;5005413;28;20270;-70
2023/04/06 05:41:00;;;;;;;9.60;6.37;;;;;;;-0.59;90.38;100795.13;5010854;28;20238;-70
2023/04/06 05:43:26;;;;;;;11.10;5.70;;;;;;;-0.01;88.67;100800.56;5007844;28;20254;-71
2023/04/06 05:45:53;;;;;;;10.47;6.07;;;;;;;0.25;86.31;100801.28;5007495;28;20699;-71
2023/04/06 05:48:21;;;;;;;9.27;6.03;;;;;;;0.46;85.80;100804.31;5007254;28;20203;-71
2023/04/06 05:50:53;;;;;;;11.73;6.37;;;;;;;0.94;83.37;100799.38;5005565;28;20224;-70
2023/04/06 05:53:20;;;;;;;10.67;6.37;;;;;;;1.73;78.79;100805.59;5007343;28;20204;-71
2023/04/06 05:55:47;;;;;;;9.90;6.10;;;;;;;2.71;75.62;100792.50;5009349;28;20206;-73
2023/04/06 05:58:14;;;;;;;11.57;6.63;;;;;;;3.34;72.28;100788.69;5007250;28;20197;-71
2023/04/06 06:00:42;;;;;;;18.30;6.73;;;;;;;3.58;72.54;100789.84;5005743;28;20599;-71
2023/04/06 06:03:09;;;;;;;10.93;6.57;;;;;;;3.23;74.52;100801.25;5007586;28;20303;-69
2023/04/06 06:05:35;;;;;;;15.13;6.70;;;;;;;2.86;77.21;100798.53;5004155;28;20691;-70
2023/04/06 06:08:02;;;;;;;14.73;7.10;;;;;;;2.41;78.24;100803.19;5009133;28;20735;-70
2023/04/06 06:10:28;;;;;;;13.53;7.23;;;;;;;2.15;79.65;100801.78;5010340;28;20303;-71
2023/04/06 06:12:55;;;;;;;13.03;7.43;;;;;;;2.25;79.93;100807.50;5010240;28;20213;-70
2023/04/06 06:15:21;;;;;;;12.00;7.43;;;;;;;2.30;79.64;100804.31;5004295;28;20244;-73
2023/04/06 06:17:48;;;;;;;10.63;6.83;;;;;;;2.13;79.96;100807.75;5006276;28;20210;-72
2023/04/06 06:20:15;;;;;;;11.67;7.10;;;;;;;2.00;81.38;100802.66;5001598;28;20313;-71
2023/04/06 06:22:41;;;;;;;12.00;7.63;;;;;;;2.03;81.62;100802.88;5007124;28;20205;-72
2023/04/06 06:25:08;;;;;;;15.03;7.37;;;;;;;2.11;81.51;100804.16;5009159;28;20204;-72
2023/04/06 06:27:34;;;;;;;14.77;7.83;;;;;;;2.08;81.30;100806.63;5008804;28;20230;-74
2023/04/06 06:30:01;;;;;;;12.43;6.87;;;;;;;2.30;80.11;100799.09;5009062;28;20228;-72
2023/04/06 06:32:27;;;;;;;11.33;7.37;;;;;;;2.86;77.14;100795.91;5004088;28;20206;-72
2023/04/06 06:34:54;;;;;;;10.97;7.77;;;;;;;3.44;75.21;100804.00;4990999;28;20912;-73
2023/04/06 06:37:21;;;;;;;10.43;7.40;;;;;;;3.64;73.39;100790.16;4995915;28;20201;-75
2023/04/06 06:39:47;;;;;;;12.37;7.80;;;;;;;3.41;73.06;100790.75;5007200;28;20223;-74
2023/04/06 06:42:13;;;;;;;11.57;7.33;;;;;;;3.50;72.94;100799.06;5007315;28;20266;-71
2023/04/06 06:44:40;;;;;;;16.60;7.83;;;;;;;3.75;71.04;100798.50;4998150;28;20203;-71
2023/04/06 06:47:06;;;;;;;11.67;7.73;;;;;;;3.96;71.14;100799.50;5008629;28;20216;-71
2023/04/06 06:49:33;;;;;;;12.43;8.17;;;;;;;4.45;69.48;100801.75;4992077;28;20286;-71
2023/04/06 06:51:59;;;;;;;14.27;7.57;;;;;;;4.49;67.79;100801.03;5005343;28;20212;-72
2023/04/06 06:54:26;;;;;;;13.17;7.70;;;;;;;4.54;67.99;100799.53;5007370;28;20205;-72
2023/04/06 06:56:54;;;;;;;15.33;7.97;;;;;;;4.30;68.37;100794.06;5002966;28;20212;-75
2023/04/06 06:59:20;;;;;;;13.87;8.17;;;;;;;4.49;68.99;100805.41;5006684;28;20686;-77
2023/04/06 07:01:47;;;;;;;13.73;7.87;;;;;;;4.93;66.56;100802.97;4997556;28;20656;-70
2023/04/06 07:04:13;;;;;;;13.30;8.70;;;;;;;5.15;65.14;100798.59;5006477;28;20231;-70
2023/04/06 07:06:39;;;;;;;18.73;8.93;;;;;;;5.69;62.53;100791.19;5009687;28;20585;-70
2023/04/06 07:09:06;;;;;;;20.87;9.90;;;;;;;6.44;58.51;100787.06;5006408;28;20204;-70
2023/04/06 07:11:32;;;;;;;26.23;9.77;;;;;;;7.57;54.52;100780.34;5007823;28;20226;-69
2023/04/06 07:13:59;;;;;;;22.33;10.13;;;;;;;8.01;52.21;100777.38;5005828;28;20253;-70
2023/04/06 07:16:25;;;;;;;20.77;10.17;;;;;;;7.86;51.46;100782.16;5002359;28;20208;-70
2023/04/06 07:18:52;;;;;;;26.93;10.53;;;;;;;8.02;49.87;100784.44;5007902;28;20204;-70
2023/04/06 07:21:18;;;;;;;29.50;9.97;;;;;;;8.14;50.65;100783.88;5006838;28;20232;-70
2023/04/06 07:23:44;;;;;;;22.10;11.30;;;;;;;8.61;48.48;100781.75;5002971;28;20200;-70
2023/04/06 07:26:11;;;;;;;26.60;11.13;;;;;;;9.03;46.15;100782.88;5007523;28;20292;-70
2023/04/06 07:28:37;;;;;;;20.17;10.80;;;;;;;9.38;45.54;100785.53;5005505;28;20207;-70
2023/04/06 07:31:04;;;;;;;22.10;10.70;;;;;;;9.65;45.06;100786.19;5002914;28;20768;-71
2023/04/06 07:33:30;;;;;;;20.00;10.43;;;;;;;9.64;43.67;100784.41;4987131;28;20661;-74
2023/04/06 07:35:58;;;;;;;26.77;10.73;;;;;;;9.60;43.97;100787.81;5008794;28;20223;-74
2023/04/06 07:38:24;;;;;;;26.63;9.07;;;;;;;9.12;45.06;100792.78;5009693;28;20706;-74
2023/04/06 07:40:51;;;;;;;28.20;9.60;;;;;;;8.48;45.97;100786.69;5007105;28;20220;-74
2023/04/06 07:43:17;;;;;;;17.17;9.13;;;;;;;8.03;47.38;100793.25;5005057;28;20200;-73
2023/04/06 07:45:44;;;;;;;21.97;9.80;;;;;;;7.83;48.36;100795.25;5008153;28;20214;-73
2023/04/06 07:48:11;;;;;;;15.70;9.60;;;;;;;7.43;49.42;100796.63;5009693;28;20224;-73
2023/04/06 07:50:37;;;;;;;19.87;9.70;;;;;;;7.02;50.71;100797.88;5005743;28;20743;-73
2023/04/06 07:53:05;;;;;;;15.07;9.37;;;;;;;7.08;51.62;100792.81;5004900;28;20272;-74
2023/04/06 07:55:31;;;;;;;26.37;12.10;;;;;;;6.58;52.24;100791.06;5008229;28;20196;-74
2023/04/06 07:57:58;;;;;;;18.50;10.30;;;;;;;6.57;52.26;100789.28;5009803;28;20200;-73
2023/04/06 08:00:24;;;;;;;21.20;11.60;;;;;;;6.53;52.88;100785.66;5008563;28;20222;-72
2023/04/06 08:02:50;;;;;;;22.53;10.17;;;;;;;6.40;54.21;100785.13;5007386;28;20231;-72
2023/04/06 08:05:17;;;;;;;20.20;10.60;;;;;;;6.32;54.08;100787.50;5008018;28;20556;-73
2023/04/06 08:07:44;;;;;;;24.87;11.30;;;;;;;6.36;53.90;100780.59;5008731;28;20258;-73
2023/04/06 08:10:11;;;;;;;18.57;11.10;;;;;;;6.59;54.59;100777.06;5008979;28;20227;-74
2023/04/06 08:12:37;;;;;;;23.27;13.00;;;;;;;6.89;53.85;100782.53;5007420;28;20676;-74
2023/04/06 08:15:04;;;;;;;22.20;12.23;;;;;;;7.17;53.80;100785.22;5005601;28;20207;-73
2023/04/06 08:17:32;;;;;;;19.87;10.33;;;;;;;7.26;52.19;100787.28;4986819;28;20262;-73
2023/04/06 08:19:58;;;;;;;18.60;9.77;;;;;;;7.45;51.75;100788.78;5007478;28;20785;-75
2023/04/06 08:22:25;;;;;;;17.87;9.90;;;;;;;7.54;51.11;100789.06;5007957;28;20208;-74
2023/04/06 08:24:51;;;;;;;18.50;9.63;;;;;;;7.73;50.89;100793.19;5008970;28;20210;-74
2023/04/06 08:27:18;;;;;;;20.67;9.97;;;;;;;7.91;50.86;100793.75;5008398;28;20224;-75
2023/04/06 08:29:44;;;;;;;15.60;9.50;;;;;;;8.13;48.95;100788.28;5008605;28;20246;-73
2023/04/06 08:32:10;;;;;;;13.90;9.43;;;;;;;8.32;49.42;100783.50;5006720;28;20214;-73
2023/04/06 08:34:37;;;;;;;18.53;10.47;;;;;;;8.53;47.41;100783.28;5008101;28;20233;-76
2023/04/06 08:37:04;;;;;;;16.70;9.90;;;;;;;8.60;47.42;100788.75;5007824;28;20275;-76
2023/04/06 08:39:31;;;;;;;14.87;10.03;;;;;;;8.69;48.89;100786.38;5007461;28;20198;-74
2023/04/06 08:41:59;;;;;;;15.90;10.27;;;;;;;8.78;46.23;100789.25;5009180;28;20286;-74
2023/04/06 08:44:26;;;;;;;16.93;10.17;;;;;;;8.94;45.79;100787.94;5009260;28;20771;-73
2023/04/06 08:46:54;;;;;;;21.23;9.93;;;;;;;8.85;45.47;100779.78;5001426;28;20269;-74
2023/04/06 08:49:21;;;;;;;23.10;11.23;;;;;;;8.86;46.83;100776.28;5004525;28;20602;-73
2023/04/06 08:51:49;;;;;;;17.87;10.60;;;;;;;8.92;48.35;100787.00;5001879;28;20242;-73
2023/04/06 08:54:15;;;;;;;17.60;10.17;;;;;;;9.14;46.11;100785.78;4992487;28;20199;-74
2023/04/06 08:56:43;;;;;;;14.50;10.07;;;;;;;9.24;44.66;100784.31;4997867;28;20246;-74
2023/04/06 08:59:10;;;;;;;16.73;9.37;;;;;;;9.36;43.80;100774.91;5004308;28;20204;-74
2023/04/06 09:01:41;;;;;;;14.10;9.47;;;;;;;9.14;43.89;100785.78;5005129;28;20220;-72
2023/04/06 09:04:10;;;;;;;18.73;10.20;;;;;;;9.02;44.82;100781.09;5006829;28;20209;-72
2023/04/06 09:06:38;;;;;;;16.10;10.07;;;;;;;9.08;44.77;100775.97;5007108;28;20250;-72
2023/04/06 09:09:04;;;;;;;18.47;10.03;;;;;;;9.22;46.19;100778.97;5006879;28;20301;-72
2023/04/06 09:11:43;;;;;;;15.07;9.77;;;;;;;9.44;44.59;100780.38;5009086;28;20254;-72
2023/04/06 09:14:09;;;;;;;14.70;10.03;;;;;;;9.62;44.57;100785.22;5008797;28;20205;-72
2023/04/06 09:16:45;;;;;;;15.90;9.80;;;;;;;9.77;44.36;100784.69;5011041;28;20193;-73
2023/04/06 09:19:12;;;;;;;15.80;10.20;;;;;;;9.91;43.77;100783.22;5005196;28;20197;-73
2023/04/06 09:21:39;;;;;;;17.17;10.17;;;;;;;10.16;43.79;100774.09;5008687;28;20216;-74
2023/04/06 09:24:09;;;;;;;16.63;9.97;;;;;;;10.10;43.25;100781.91;5008653;28;20758;-74
2023/04/06 09:26:46;;;;;;;15.53;10.07;;;;;;;10.25;42.17;100783.13;5009287;28;20207;-74
2023/04/06 09:29:26;;;;;;;16.73;9.63;;;;;;;10.41;42.89;100764.94;5006608;28;20322;-72
2023/04/06 09:32:10;;;;;;;18.23;9.67;;;;;;;10.55;41.93;100769.63;5008954;28;20284;-73
2023/04/06 09:34:40;;;;;;;18.80;9.83;;;;;;;10.67;41.63;100767.22;5008553;28;20204;-74
2023/04/06 09:37:17;;;;;;;17.83;9.73;;;;;;;10.81;41.99;100761.31;5007472;28;20271;-73
2023/04/06 09:39:45;;;;;;;13.87;9.37;;;;;;;11.05;41.30;100760.81;5005707;28;20224;-73
2023/04/06 09:42:26;;;;;;;16.50;9.40;;;;;;;11.18;41.61;100758.41;5003997;28;20919;-73
2023/04/06 09:44:52;;;;;;;22.83;12.63;;;;;;;11.37;42.61;100756.97;5005246;28;20689;-75
2023/04/06 09:47:19;;;;;;;14.00;9.40;;;;;;;11.56;41.00;100756.34;5005301;28;20252;-71
2023/04/06 09:49:50;;;;;;;17.10;9.20;;;;;;;11.53;40.55;100752.78;5007557;28;20222;-70
2023/04/06 09:52:17;;;;;;;15.53;10.17;;;;;;;11.48;40.28;100752.69;5008159;28;20213;-71
2023/04/06 09:54:49;;;;;;;16.23;9.20;;;;;;;11.70;40.55;100753.03;5009556;28;20249;-70
2023/04/06 09:57:25;;;;;;;18.37;8.73;;;;;;;11.82;40.29;100755.91;5005427;28;20192;-71
2023/04/06 10:00:13;;;;;;;15.63;10.00;;;;;;;11.93;40.56;100748.97;5005296;28;20237;-70
2023/04/06 10:02:50;;;;;;;14.37;9.17;;;;;;;11.91;40.06;100743.63;5010986;28;20192;-71
2023/04/06 10:05:29;;;;;;;13.87;9.47;;;;;;;12.12;40.06;100742.16;4988787;28;20230;-70
2023/04/06 10:08:00;;;;;;;14.33;9.87;;;;;;;12.16;38.75;100741.31;5001041;28;21649;-71
2023/04/06 10:10:30;;;;;;;17.57;8.33;;;;;;;12.21;39.86;100739.59;5006712;28;20304;-72
2023/04/06 10:12:58;;;;;;;13.13;8.40;;;;;;;12.24;39.67;100732.56;5008629;28;20229;-71
2023/04/06 10:15:24;;;;;;;15.13;9.07;;;;;;;12.44;39.27;100734.59;5008298;28;20618;-72
2023/04/06 10:17:51;;;;;;;13.93;8.93;;;;;;;12.72;39.57;100730.44;5007279;28;20680;-72
2023/04/06 10:20:27;;;;;;;20.47;9.40;;;;;;;12.87;39.04;100735.91;5009946;28;20221;-73
2023/04/06 10:23:01;;;;;;;11.43;8.17;;;;;;;13.30;37.85;100723.91;5001927;28;20551;-83
2023/04/06 10:25:28;;;;;;;16.17;9.00;;;;;;;13.41;37.86;100732.84;4993601;28;20213;-82
2023/04/06 10:28:09;;;;;;;12.73;8.67;;;;;;;13.52;37.14;100722.28;5009168;28;20643;-78
2023/04/06 10:30:42;;;;;;;15.23;9.60;;;;;;;13.73;36.91;100721.53;5004540;28;20223;-77
2023/04/06 10:33:14;;;;;;;15.50;9.17;;;;;;;13.94;37.40;100721.66;5007482;28;20199;-78
2023/04/06 10:35:41;;;;;;;15.10;8.97;;;;;;;14.05;36.33;100713.72;5003844;28;20204;-81
2023/04/06 10:38:08;;;;;;;14.00;8.60;;;;;;;14.16;36.33;100717.31;5006451;28;20234;-83
2023/04/06 10:40:39;;;;;;;16.07;9.03;;;;;;;13.92;36.42;100714.53;5007083;28;20228;-83
2023/04/06 10:43:17;;;;;;;14.37;9.07;;;;;;;14.17;36.63;100720.88;5008711;28;20558;-83
2023/04/06 10:45:44;;;;;;;17.23;9.67;;;;;;;14.76;36.27;100718.41;5008113;28;20200;-78
2023/04/06 10:48:18;;;;;;;17.57;9.40;;;;;;;15.16;35.76;100715.75;5004397;28;20219;-74
2023/04/06 10:50:48;;;;;;;15.47;8.97;;;;;;;15.25;34.26;100705.13;5003744;28;20800;-74
2023/04/06 10:53:32;;;;;;;15.53;9.17;;;;;;;15.22;35.17;100705.13;5006484;28;20203;-73
2023/04/06 10:56:00;;;;;;;13.80;9.53;;;;;;;15.59;35.42;100701.50;4988356;28;20232;-74
2023/04/06 10:58:27;;;;;;;13.47;9.40;;;;;;;15.43;35.18;100696.19;5001575;28;20243;-76
2023/04/06 11:00:55;;;;;;;13.23;8.77;;;;;;;15.56;34.14;100698.81;5002820;28;20224;-73
2023/04/06 11:03:22;;;;;;;16.87;9.53;;;;;;;15.90;34.05;100696.09;5003459;28;20193;-75
2023/04/06 11:05:50;;;;;;;16.10;9.93;;;;;;;15.90;33.76;100690.75;5003484;28;20548;-72
2023/04/06 11:08:33;;;;;;;13.97;9.50;;;;;;;16.14;34.13;100687.13;5007351;28;20219;-75
2023/04/06 11:11:15;;;;;;;15.83;9.87;;;;;;;16.33;34.35;100688.78;5006192;28;20219;-72
2023/04/06 11:13:44;;;;;;;14.07;9.23;;;;;;;16.56;32.60;100686.00;5004169;28;20287;-72
2023/04/06 11:16:17;;;;;;;14.40;9.73;;;;;;;16.39;33.77;100694.09;5006208;28;20327;-76
2023/04/06 11:18:48;;;;;;;15.73;10.40;;;;;;;16.41;33.46;100691.41;5005142;28;20208;-72
2023/04/06 11:21:15;;;;;;;14.97;10.43;;;;;;;16.31;33.00;100677.22;4988555;28;20227;-72
2023/04/06 11:23:41;;;;;;;15.63;10.27;;;;;;;16.55;32.66;100685.09;5007880;28;20220;-74
2023/04/06 11:26:12;;;;;;;16.83;10.80;;;;;;;16.68;32.62;100680.59;5009387;28;20254;-75
2023/04/06 11:28:45;;;;;;;16.17;9.40;;;;;;;16.71;31.81;100677.00;5005456;28;22856;-73
2023/04/06 11:31:12;;;;;;;13.40;9.07;;;;;;;16.98;31.67;100667.88;5003611;28;20240;-72
2023/04/06 11:33:39;;;;;;;18.10;9.63;;;;;;;17.16;31.50;100660.56;5007731;28;20197;-72
2023/04/06 11:36:06;;;;;;;19.60;9.17;;;;;;;17.42;30.25;100656.78;5008986;28;20231;-75
2023/04/06 11:38:33;;;;;;;18.80;10.00;;;;;;;17.19;31.81;100665.00;5004958;28;20641;-71